sensor_id;sensor_type;location;lat;lon;timestamp;temperature;humidity
12006;DHT22;6062;47.294;12.182;2022-10-15T00:00:37;10.40;65.30
12006;DHT22;6062;47.294;12.182;2022-10-15T00:03:03;10.40;65.20
12006;DHT22;6062;47.294;12.182;2022-10-15T00:05:29;10.40;65.40
12006;DHT22;6062;47.294;12.182;2022-10-15T00:07:55;10.40;65.40
12006;DHT22;6062;47.294;12.182;2022-10-15T00:10:21;10.40;65.30
12006;DHT22;6062;47.294;12.182;2022-10-15T00:12:47;10.40;65.40
12006;DHT22;6062;47.294;12.182;2022-10-15T00:15:13;10.40;65.70
12006;DHT22;6062;47.294;12.182;2022-10-15T00:17:39;10.30;65.70
12006;DHT22;6062;47.294;12.182;2022-10-15T00:20:08;10.30;65.80
12006;DHT22;6062;47.294;12.182;2022-10-15T00:22:35;10.30;65.90
12006;DHT22;6062;47.294;12.182;2022-10-15T00:25:02;10.30;66.00
12006;DHT22;6062;47.294;12.182;2022-10-15T00:27:29;10.30;66.10
12006;DHT22;6062;47.294;12.182;2022-10-15T00:29:54;10.30;66.20
12006;DHT22;6062;47.294;12.182;2022-10-15T00:32:20;10.30;66.30
12006;DHT22;6062;47.294;12.182;2022-10-15T00:34:46;10.20;66.30
12006;DHT22;6062;47.294;12.182;2022-10-15T00:37:12;10.20;66.40
12006;DHT22;6062;47.294;12.182;2022-10-15T00:39:37;10.30;66.60
12006;DHT22;6062;47.294;12.182;2022-10-15T00:42:03;10.30;66.70
12006;DHT22;6062;47.294;12.182;2022-10-15T00:50:04;10.20;67.00
12006;DHT22;6062;47.294;12.182;2022-10-15T00:52:37;10.20;67.10
12006;DHT22;6062;47.294;12.182;2022-10-15T00:55:14;10.20;67.00
12006;DHT22;6062;47.294;12.182;2022-10-15T00:57:44;10.20;67.30
12006;DHT22;6062;47.294;12.182;2022-10-15T01:00:13;10.20;67.10
12006;DHT22;6062;47.294;12.182;2022-10-15T01:02:40;10.20;67.30
12006;DHT22;6062;47.294;12.182;2022-10-15T01:05:07;10.30;68.10
12006;DHT22;6062;47.294;12.182;2022-10-15T01:07:33;10.20;67.30
12006;DHT22;6062;47.294;12.182;2022-10-15T01:10:00;10.20;67.30
12006;DHT22;6062;47.294;12.182;2022-10-15T01:15:38;10.20;67.60
12006;DHT22;6062;47.294;12.182;2022-10-15T01:19:16;10.20;67.30
12006;DHT22;6062;47.294;12.182;2022-10-15T01:21:32;10.20;67.30
12006;DHT22;6062;47.294;12.182;2022-10-15T01:27:27;10.20;67.60
12006;DHT22;6062;47.294;12.182;2022-10-15T01:38:54;10.20;67.50
12006;DHT22;6062;47.294;12.182;2022-10-15T01:41:29;10.20;67.50
12006;DHT22;6062;47.294;12.182;2022-10-15T01:44:03;10.20;67.60
12006;DHT22;6062;47.294;12.182;2022-10-15T01:46:51;10.20;67.60
12006;DHT22;6062;47.294;12.182;2022-10-15T01:49:24;10.20;67.80
12006;DHT22;6062;47.294;12.182;2022-10-15T01:51:55;10.20;67.70
12006;DHT22;6062;47.294;12.182;2022-10-15T01:54:24;10.20;67.80
12006;DHT22;6062;47.294;12.182;2022-10-15T01:56:52;10.20;68.00
12006;DHT22;6062;47.294;12.182;2022-10-15T01:59:22;10.20;68.10
12006;DHT22;6062;47.294;12.182;2022-10-15T02:01:51;10.20;68.10
12006;DHT22;6062;47.294;12.182;2022-10-15T02:04:20;10.20;68.10
12006;DHT22;6062;47.294;12.182;2022-10-15T02:07:04;10.10;68.00
12006;DHT22;6062;47.294;12.182;2022-10-15T02:15:33;10.00;68.30
12006;DHT22;6062;47.294;12.182;2022-10-15T02:18:02;10.00;68.60
12006;DHT22;6062;47.294;12.182;2022-10-15T02:23:19;10.00;68.90
12006;DHT22;6062;47.294;12.182;2022-10-15T02:25:50;10.00;69.00
12006;DHT22;6062;47.294;12.182;2022-10-15T02:28:17;10.00;69.00
12006;DHT22;6062;47.294;12.182;2022-10-15T02:30:47;9.90;69.10
12006;DHT22;6062;47.294;12.182;2022-10-15T02:33:17;9.90;69.10
12006;DHT22;6062;47.294;12.182;2022-10-15T02:35:47;9.90;69.10
12006;DHT22;6062;47.294;12.182;2022-10-15T02:38:18;9.90;69.30
12006;DHT22;6062;47.294;12.182;2022-10-15T02:40:47;9.90;69.50
12006;DHT22;6062;47.294;12.182;2022-10-15T02:43:15;9.90;69.50
12006;DHT22;6062;47.294;12.182;2022-10-15T02:45:44;9.90;69.60
12006;DHT22;6062;47.294;12.182;2022-10-15T02:48:10;9.90;69.70
12006;DHT22;6062;47.294;12.182;2022-10-15T02:50:36;9.90;69.60
12006;DHT22;6062;47.294;12.182;2022-10-15T02:53:01;9.90;69.70
12006;DHT22;6062;47.294;12.182;2022-10-15T02:55:27;9.90;69.70
12006;DHT22;6062;47.294;12.182;2022-10-15T02:57:53;9.90;69.80
12006;DHT22;6062;47.294;12.182;2022-10-15T03:00:19;9.90;69.90
12006;DHT22;6062;47.294;12.182;2022-10-15T03:02:45;9.90;69.80
12006;DHT22;6062;47.294;12.182;2022-10-15T03:05:10;9.90;69.90
12006;DHT22;6062;47.294;12.182;2022-10-15T03:07:36;9.90;69.90
12006;DHT22;6062;47.294;12.182;2022-10-15T03:10:02;9.90;70.00
12006;DHT22;6062;47.294;12.182;2022-10-15T03:12:28;9.90;70.00
12006;DHT22;6062;47.294;12.182;2022-10-15T03:14:54;9.90;70.10
12006;DHT22;6062;47.294;12.182;2022-10-15T03:17:20;9.90;70.10
12006;DHT22;6062;47.294;12.182;2022-10-15T03:19:46;9.90;70.10
12006;DHT22;6062;47.294;12.182;2022-10-15T03:22:12;9.90;70.00
12006;DHT22;6062;47.294;12.182;2022-10-15T03:24:37;9.90;70.20
12006;DHT22;6062;47.294;12.182;2022-10-15T03:27:03;9.90;70.40
12006;DHT22;6062;47.294;12.182;2022-10-15T03:29:29;9.90;70.30
12006;DHT22;6062;47.294;12.182;2022-10-15T03:31:55;9.90;70.30
12006;DHT22;6062;47.294;12.182;2022-10-15T03:34:20;9.90;70.40
12006;DHT22;6062;47.294;12.182;2022-10-15T03:36:46;9.90;70.30
12006;DHT22;6062;47.294;12.182;2022-10-15T03:39:12;9.90;70.40
12006;DHT22;6062;47.294;12.182;2022-10-15T03:41:38;9.90;70.40
12006;DHT22;6062;47.294;12.182;2022-10-15T03:44:06;9.90;70.30
12006;DHT22;6062;47.294;12.182;2022-10-15T03:46:33;10.00;70.40
12006;DHT22;6062;47.294;12.182;2022-10-15T03:48:59;10.00;70.30
12006;DHT22;6062;47.294;12.182;2022-10-15T03:51:26;10.00;70.30
12006;DHT22;6062;47.294;12.182;2022-10-15T03:53:51;10.00;70.30
12006;DHT22;6062;47.294;12.182;2022-10-15T03:56:18;10.00;70.20
12006;DHT22;6062;47.294;12.182;2022-10-15T03:58:44;10.00;70.20
12006;DHT22;6062;47.294;12.182;2022-10-15T04:01:11;10.10;70.30
12006;DHT22;6062;47.294;12.182;2022-10-15T04:03:41;10.10;70.40
12006;DHT22;6062;47.294;12.182;2022-10-15T04:06:07;10.20;70.40
12006;DHT22;6062;47.294;12.182;2022-10-15T04:08:33;10.30;70.30
12006;DHT22;6062;47.294;12.182;2022-10-15T04:10:59;10.30;70.10
12006;DHT22;6062;47.294;12.182;2022-10-15T04:13:26;10.40;69.70
12006;DHT22;6062;47.294;12.182;2022-10-15T04:15:52;10.50;69.40
12006;DHT22;6062;47.294;12.182;2022-10-15T04:18:18;10.60;69.00
12006;DHT22;6062;47.294;12.182;2022-10-15T04:20:48;10.70;68.80
12006;DHT22;6062;47.294;12.182;2022-10-15T04:23:14;10.70;68.50
12006;DHT22;6062;47.294;12.182;2022-10-15T04:25:41;10.80;67.80
12006;DHT22;6062;47.294;12.182;2022-10-15T04:28:07;10.90;67.90
12006;DHT22;6062;47.294;12.182;2022-10-15T04:30:33;10.90;67.50
12006;DHT22;6062;47.294;12.182;2022-10-15T04:32:59;11.00;67.40
12006;DHT22;6062;47.294;12.182;2022-10-15T04:35:24;11.00;67.10
12006;DHT22;6062;47.294;12.182;2022-10-15T04:37:50;11.10;67.00
12006;DHT22;6062;47.294;12.182;2022-10-15T04:40:16;11.10;67.10
12006;DHT22;6062;47.294;12.182;2022-10-15T04:42:43;11.10;67.20
12006;DHT22;6062;47.294;12.182;2022-10-15T04:45:09;11.20;67.00
12006;DHT22;6062;47.294;12.182;2022-10-15T04:47:34;11.20;66.80
12006;DHT22;6062;47.294;12.182;2022-10-15T04:50:00;11.20;66.40
12006;DHT22;6062;47.294;12.182;2022-10-15T04:52:26;11.30;66.50
12006;DHT22;6062;47.294;12.182;2022-10-15T04:54:51;11.30;66.60
12006;DHT22;6062;47.294;12.182;2022-10-15T04:57:17;11.30;66.40
12006;DHT22;6062;47.294;12.182;2022-10-15T04:59:43;11.30;66.40
12006;DHT22;6062;47.294;12.182;2022-10-15T05:02:09;11.40;66.20
12006;DHT22;6062;47.294;12.182;2022-10-15T05:04:35;11.40;65.80
12006;DHT22;6062;47.294;12.182;2022-10-15T05:07:01;11.40;65.90
12006;DHT22;6062;47.294;12.182;2022-10-15T05:09:27;11.40;66.20
12006;DHT22;6062;47.294;12.182;2022-10-15T05:11:53;11.50;65.40
12006;DHT22;6062;47.294;12.182;2022-10-15T05:14:20;11.50;65.20
12006;DHT22;6062;47.294;12.182;2022-10-15T05:16:46;11.50;65.10
12006;DHT22;6062;47.294;12.182;2022-10-15T05:19:13;11.60;65.00
12006;DHT22;6062;47.294;12.182;2022-10-15T05:21:38;11.60;65.00
12006;DHT22;6062;47.294;12.182;2022-10-15T05:24:05;11.60;64.90
12006;DHT22;6062;47.294;12.182;2022-10-15T05:26:31;11.70;64.90
12006;DHT22;6062;47.294;12.182;2022-10-15T05:28:58;11.70;64.50
12006;DHT22;6062;47.294;12.182;2022-10-15T05:31:26;11.70;64.50
12006;DHT22;6062;47.294;12.182;2022-10-15T05:33:54;11.70;64.50
12006;DHT22;6062;47.294;12.182;2022-10-15T05:36:28;11.80;64.60
12006;DHT22;6062;47.294;12.182;2022-10-15T05:38:59;11.80;64.50
12006;DHT22;6062;47.294;12.182;2022-10-15T05:41:27;11.80;64.30
12006;DHT22;6062;47.294;12.182;2022-10-15T05:43:56;11.90;64.20
12006;DHT22;6062;47.294;12.182;2022-10-15T05:46:23;11.80;64.10
12006;DHT22;6062;47.294;12.182;2022-10-15T05:48:54;11.90;64.00
12006;DHT22;6062;47.294;12.182;2022-10-15T05:51:22;11.90;63.90
12006;DHT22;6062;47.294;12.182;2022-10-15T05:53:53;11.90;64.10
12006;DHT22;6062;47.294;12.182;2022-10-15T05:56:21;11.90;64.20
12006;DHT22;6062;47.294;12.182;2022-10-15T05:58:47;11.90;64.10
12006;DHT22;6062;47.294;12.182;2022-10-15T06:01:13;11.90;63.90
12006;DHT22;6062;47.294;12.182;2022-10-15T06:03:40;11.90;63.80
12006;DHT22;6062;47.294;12.182;2022-10-15T06:08:43;12.00;63.70
12006;DHT22;6062;47.294;12.182;2022-10-15T06:11:09;12.00;63.80
12006;DHT22;6062;47.294;12.182;2022-10-15T06:13:38;12.00;63.70
12006;DHT22;6062;47.294;12.182;2022-10-15T06:16:06;12.00;63.40
12006;DHT22;6062;47.294;12.182;2022-10-15T06:18:32;12.00;63.10
12006;DHT22;6062;47.294;12.182;2022-10-15T06:20:58;12.00;63.30
12006;DHT22;6062;47.294;12.182;2022-10-15T06:23:23;12.00;63.30
12006;DHT22;6062;47.294;12.182;2022-10-15T06:25:50;12.00;63.20
12006;DHT22;6062;47.294;12.182;2022-10-15T06:28:16;12.10;63.30
12006;DHT22;6062;47.294;12.182;2022-10-15T06:30:42;12.10;63.10
12006;DHT22;6062;47.294;12.182;2022-10-15T06:33:09;12.10;62.80
12006;DHT22;6062;47.294;12.182;2022-10-15T06:35:35;12.10;62.60
12006;DHT22;6062;47.294;12.182;2022-10-15T06:38:02;12.10;62.40
12006;DHT22;6062;47.294;12.182;2022-10-15T06:40:29;12.10;62.50
12006;DHT22;6062;47.294;12.182;2022-10-15T06:43:02;12.20;62.80
12006;DHT22;6062;47.294;12.182;2022-10-15T06:45:29;12.10;63.20
12006;DHT22;6062;47.294;12.182;2022-10-15T06:47:55;12.20;63.10
12006;DHT22;6062;47.294;12.182;2022-10-15T06:50:20;12.20;63.40
12006;DHT22;6062;47.294;12.182;2022-10-15T06:52:46;12.10;63.20
12006;DHT22;6062;47.294;12.182;2022-10-15T06:55:12;12.10;63.30
12006;DHT22;6062;47.294;12.182;2022-10-15T06:57:37;12.10;63.70
12006;DHT22;6062;47.294;12.182;2022-10-15T07:00:03;12.00;63.40
12006;DHT22;6062;47.294;12.182;2022-10-15T07:02:29;12.00;63.90
12006;DHT22;6062;47.294;12.182;2022-10-15T07:04:55;12.00;64.00
12006;DHT22;6062;47.294;12.182;2022-10-15T07:07:21;11.90;64.10
12006;DHT22;6062;47.294;12.182;2022-10-15T07:09:46;12.00;64.40
12006;DHT22;6062;47.294;12.182;2022-10-15T07:12:12;12.00;64.70
12006;DHT22;6062;47.294;12.182;2022-10-15T07:14:38;12.10;64.70
12006;DHT22;6062;47.294;12.182;2022-10-15T07:17:04;12.20;65.20
12006;DHT22;6062;47.294;12.182;2022-10-15T07:19:30;12.20;65.00
12006;DHT22;6062;47.294;12.182;2022-10-15T07:21:55;12.20;64.50
12006;DHT22;6062;47.294;12.182;2022-10-15T07:24:21;12.20;64.50
12006;DHT22;6062;47.294;12.182;2022-10-15T07:26:47;12.20;64.60
12006;DHT22;6062;47.294;12.182;2022-10-15T07:29:12;12.10;64.80
12006;DHT22;6062;47.294;12.182;2022-10-15T07:31:38;12.10;65.00
12006;DHT22;6062;47.294;12.182;2022-10-15T07:34:05;12.00;65.30
12006;DHT22;6062;47.294;12.182;2022-10-15T07:36:30;12.00;65.80
12006;DHT22;6062;47.294;12.182;2022-10-15T07:38:56;12.00;66.30
12006;DHT22;6062;47.294;12.182;2022-10-15T07:41:22;12.00;66.70
12006;DHT22;6062;47.294;12.182;2022-10-15T07:43:50;11.90;67.00
12006;DHT22;6062;47.294;12.182;2022-10-15T07:46:18;12.00;67.20
12006;DHT22;6062;47.294;12.182;2022-10-15T07:48:44;12.00;67.10
12006;DHT22;6062;47.294;12.182;2022-10-15T07:51:10;12.00;67.10
12006;DHT22;6062;47.294;12.182;2022-10-15T07:53:36;12.00;67.10
12006;DHT22;6062;47.294;12.182;2022-10-15T07:56:07;12.00;67.40
12006;DHT22;6062;47.294;12.182;2022-10-15T07:58:36;12.00;67.10
12006;DHT22;6062;47.294;12.182;2022-10-15T08:01:04;12.00;67.10
12006;DHT22;6062;47.294;12.182;2022-10-15T08:03:31;12.10;67.30
12006;DHT22;6062;47.294;12.182;2022-10-15T08:06:01;12.10;67.40
12006;DHT22;6062;47.294;12.182;2022-10-15T08:08:28;12.10;67.40
12006;DHT22;6062;47.294;12.182;2022-10-15T08:10:54;12.10;67.20
12006;DHT22;6062;47.294;12.182;2022-10-15T08:13:20;12.10;67.00
12006;DHT22;6062;47.294;12.182;2022-10-15T08:15:46;12.20;67.70
12006;DHT22;6062;47.294;12.182;2022-10-15T08:18:12;12.20;67.60
12006;DHT22;6062;47.294;12.182;2022-10-15T08:20:38;12.30;67.20
12006;DHT22;6062;47.294;12.182;2022-10-15T08:23:05;12.30;67.00
12006;DHT22;6062;47.294;12.182;2022-10-15T08:25:39;12.40;66.90
12006;DHT22;6062;47.294;12.182;2022-10-15T08:28:06;12.50;66.80
12006;DHT22;6062;47.294;12.182;2022-10-15T08:30:35;12.50;66.90
12006;DHT22;6062;47.294;12.182;2022-10-15T08:33:01;12.60;66.90
12006;DHT22;6062;47.294;12.182;2022-10-15T08:35:27;12.60;66.40
12006;DHT22;6062;47.294;12.182;2022-10-15T08:37:53;12.70;66.20
12006;DHT22;6062;47.294;12.182;2022-10-15T08:40:21;12.70;66.00
12006;DHT22;6062;47.294;12.182;2022-10-15T08:42:47;12.60;66.00
12006;DHT22;6062;47.294;12.182;2022-10-15T08:45:18;12.60;66.20
12006;DHT22;6062;47.294;12.182;2022-10-15T08:47:55;12.60;66.40
12006;DHT22;6062;47.294;12.182;2022-10-15T08:50:52;12.60;66.50
12006;DHT22;6062;47.294;12.182;2022-10-15T08:53:24;12.60;66.30
12006;DHT22;6062;47.294;12.182;2022-10-15T08:55:54;12.60;66.10
12006;DHT22;6062;47.294;12.182;2022-10-15T08:58:52;12.60;66.30
12006;DHT22;6062;47.294;12.182;2022-10-15T09:01:36;12.50;66.70
12006;DHT22;6062;47.294;12.182;2022-10-15T09:13:13;12.60;67.00
12006;DHT22;6062;47.294;12.182;2022-10-15T09:16:31;12.50;67.00
12006;DHT22;6062;47.294;12.182;2022-10-15T09:18:55;12.50;67.00
12006;DHT22;6062;47.294;12.182;2022-10-15T09:21:24;12.50;67.10
12006;DHT22;6062;47.294;12.182;2022-10-15T09:23:59;12.50;67.30
12006;DHT22;6062;47.294;12.182;2022-10-15T09:29:46;12.40;68.00
12006;DHT22;6062;47.294;12.182;2022-10-15T09:35:17;12.50;68.60
12006;DHT22;6062;47.294;12.182;2022-10-15T09:38:07;12.50;68.70
12006;DHT22;6062;47.294;12.182;2022-10-15T09:43:33;12.40;68.40
12006;DHT22;6062;47.294;12.182;2022-10-15T09:46:03;12.40;68.40
12006;DHT22;6062;47.294;12.182;2022-10-15T09:48:32;12.40;68.40
12006;DHT22;6062;47.294;12.182;2022-10-15T09:51:25;12.40;68.60
12006;DHT22;6062;47.294;12.182;2022-10-15T09:56:37;12.60;68.80
12006;DHT22;6062;47.294;12.182;2022-10-15T09:59:14;12.60;68.10
12006;DHT22;6062;47.294;12.182;2022-10-15T10:02:14;12.70;67.80
12006;DHT22;6062;47.294;12.182;2022-10-15T10:04:40;12.70;67.40
12006;DHT22;6062;47.294;12.182;2022-10-15T10:07:06;12.70;67.30
12006;DHT22;6062;47.294;12.182;2022-10-15T10:09:46;12.80;67.40
12006;DHT22;6062;47.294;12.182;2022-10-15T10:12:19;12.80;67.50
12006;DHT22;6062;47.294;12.182;2022-10-15T10:17:27;12.90;68.10
12006;DHT22;6062;47.294;12.182;2022-10-15T10:20:16;13.00;68.50
12006;DHT22;6062;47.294;12.182;2022-10-15T10:22:54;13.00;68.50
12006;DHT22;6062;47.294;12.182;2022-10-15T10:25:30;13.00;68.40
12006;DHT22;6062;47.294;12.182;2022-10-15T10:30:42;13.10;69.40
12006;DHT22;6062;47.294;12.182;2022-10-15T10:33:28;13.20;69.10
12006;DHT22;6062;47.294;12.182;2022-10-15T10:36:05;13.30;68.70
12006;DHT22;6062;47.294;12.182;2022-10-15T10:38:35;13.40;68.60
12006;DHT22;6062;47.294;12.182;2022-10-15T10:41:05;13.50;68.30
12006;DHT22;6062;47.294;12.182;2022-10-15T10:43:38;13.60;68.40
12006;DHT22;6062;47.294;12.182;2022-10-15T10:46:18;13.70;68.90
12006;DHT22;6062;47.294;12.182;2022-10-15T10:48:49;13.80;67.70
12006;DHT22;6062;47.294;12.182;2022-10-15T10:51:22;13.90;67.60
12006;DHT22;6062;47.294;12.182;2022-10-15T10:53:58;14.00;67.40
12006;DHT22;6062;47.294;12.182;2022-10-15T10:56:30;14.10;67.40
12006;DHT22;6062;47.294;12.182;2022-10-15T10:59:14;14.10;67.40
12006;DHT22;6062;47.294;12.182;2022-10-15T11:01:43;14.20;67.30
12006;DHT22;6062;47.294;12.182;2022-10-15T11:04:40;14.20;67.10
12006;DHT22;6062;47.294;12.182;2022-10-15T11:24:24;14.90;66.30
12006;DHT22;6062;47.294;12.182;2022-10-15T11:27:41;15.00;66.40
12006;DHT22;6062;47.294;12.182;2022-10-15T11:30:39;15.10;66.00
12006;DHT22;6062;47.294;12.182;2022-10-15T11:33:15;15.30;65.90
12006;DHT22;6062;47.294;12.182;2022-10-15T11:42:24;15.70;64.00
12006;DHT22;6062;47.294;12.182;2022-10-15T11:44:58;15.70;63.30
12006;DHT22;6062;47.294;12.182;2022-10-15T11:47:53;15.70;62.80
12006;DHT22;6062;47.294;12.182;2022-10-15T11:50:51;15.70;62.10
12006;DHT22;6062;47.294;12.182;2022-10-15T11:53:41;15.70;62.00
12006;DHT22;6062;47.294;12.182;2022-10-15T11:56:30;15.60;62.20
12006;DHT22;6062;47.294;12.182;2022-10-15T12:02:10;15.50;62.00
12006;DHT22;6062;47.294;12.182;2022-10-15T12:04:51;15.50;61.90
12006;DHT22;6062;47.294;12.182;2022-10-15T12:07:30;15.40;62.30
12006;DHT22;6062;47.294;12.182;2022-10-15T12:13:03;15.40;63.00
12006;DHT22;6062;47.294;12.182;2022-10-15T12:21:34;15.60;62.70
12006;DHT22;6062;47.294;12.182;2022-10-15T12:24:04;15.60;62.30
12006;DHT22;6062;47.294;12.182;2022-10-15T12:26:50;15.70;62.10
12006;DHT22;6062;47.294;12.182;2022-10-15T12:29:21;15.70;61.50
12006;DHT22;6062;47.294;12.182;2022-10-15T12:31:52;15.70;61.50
12006;DHT22;6062;47.294;12.182;2022-10-15T12:34:35;15.60;61.50
12006;DHT22;6062;47.294;12.182;2022-10-15T12:37:18;15.50;61.60
12006;DHT22;6062;47.294;12.182;2022-10-15T12:39:54;15.40;62.00
12006;DHT22;6062;47.294;12.182;2022-10-15T12:42:27;15.40;61.90
12006;DHT22;6062;47.294;12.182;2022-10-15T12:45:21;15.20;62.00
12006;DHT22;6062;47.294;12.182;2022-10-15T12:48:17;15.10;62.60
12006;DHT22;6062;47.294;12.182;2022-10-15T12:50:45;14.90;63.00
12006;DHT22;6062;47.294;12.182;2022-10-15T12:58:37;14.60;64.50
12006;DHT22;6062;47.294;12.182;2022-10-15T13:03:50;14.50;65.10
12006;DHT22;6062;47.294;12.182;2022-10-15T13:06:23;14.50;65.20
12006;DHT22;6062;47.294;12.182;2022-10-15T13:16:55;14.50;66.30
12006;DHT22;6062;47.294;12.182;2022-10-15T13:19:26;14.50;66.60
12006;DHT22;6062;47.294;12.182;2022-10-15T13:22:04;14.50;66.90
12006;DHT22;6062;47.294;12.182;2022-10-15T13:24:40;14.60;67.10
12006;DHT22;6062;47.294;12.182;2022-10-15T13:27:19;14.70;67.10
12006;DHT22;6062;47.294;12.182;2022-10-15T13:32:31;14.80;66.90
12006;DHT22;6062;47.294;12.182;2022-10-15T13:35:08;14.90;66.80
12006;DHT22;6062;47.294;12.182;2022-10-15T13:37:37;14.90;66.50
12006;DHT22;6062;47.294;12.182;2022-10-15T13:40:06;14.90;66.40
12006;DHT22;6062;47.294;12.182;2022-10-15T13:42:33;14.90;66.60
12006;DHT22;6062;47.294;12.182;2022-10-15T13:47:46;14.70;65.90
12006;DHT22;6062;47.294;12.182;2022-10-15T13:50:28;14.70;66.40
12006;DHT22;6062;47.294;12.182;2022-10-15T13:55:36;14.60;67.10
12006;DHT22;6062;47.294;12.182;2022-10-15T13:58:20;14.60;66.90
12006;DHT22;6062;47.294;12.182;2022-10-15T14:00:52;14.60;66.80
12006;DHT22;6062;47.294;12.182;2022-10-15T14:03:34;14.60;66.70
12006;DHT22;6062;47.294;12.182;2022-10-15T14:08:54;14.70;66.80
12006;DHT22;6062;47.294;12.182;2022-10-15T14:11:24;14.70;66.70
12006;DHT22;6062;47.294;12.182;2022-10-15T14:13:54;14.70;66.70
12006;DHT22;6062;47.294;12.182;2022-10-15T14:16:40;14.80;66.80
12006;DHT22;6062;47.294;12.182;2022-10-15T14:19:17;14.80;67.10
12006;DHT22;6062;47.294;12.182;2022-10-15T14:21:46;14.80;66.70
12006;DHT22;6062;47.294;12.182;2022-10-15T14:24:26;14.80;66.20
12006;DHT22;6062;47.294;12.182;2022-10-15T14:27:02;14.80;66.20
12006;DHT22;6062;47.294;12.182;2022-10-15T14:29:54;14.70;66.20
12006;DHT22;6062;47.294;12.182;2022-10-15T14:34:59;14.60;66.00
12006;DHT22;6062;47.294;12.182;2022-10-15T14:42:49;14.40;66.80
12006;DHT22;6062;47.294;12.182;2022-10-15T14:45:30;14.30;67.00
12006;DHT22;6062;47.294;12.182;2022-10-15T14:48:31;14.30;67.20
12006;DHT22;6062;47.294;12.182;2022-10-15T14:51:03;14.30;67.40
12006;DHT22;6062;47.294;12.182;2022-10-15T14:53:33;14.30;67.50
12006;DHT22;6062;47.294;12.182;2022-10-15T14:56:13;14.30;67.60
12006;DHT22;6062;47.294;12.182;2022-10-15T14:58:52;14.30;67.80
12006;DHT22;6062;47.294;12.182;2022-10-15T15:01:21;14.30;67.80
12006;DHT22;6062;47.294;12.182;2022-10-15T15:03:53;14.30;67.60
12006;DHT22;6062;47.294;12.182;2022-10-15T15:06:20;14.30;67.60
12006;DHT22;6062;47.294;12.182;2022-10-15T15:08:45;14.30;67.90
12006;DHT22;6062;47.294;12.182;2022-10-15T15:11:19;14.30;67.10
12006;DHT22;6062;47.294;12.182;2022-10-15T15:13:47;14.20;67.30
12006;DHT22;6062;47.294;12.182;2022-10-15T15:16:15;14.20;67.30
12006;DHT22;6062;47.294;12.182;2022-10-15T15:18:41;14.10;67.60
12006;DHT22;6062;47.294;12.182;2022-10-15T15:21:19;14.10;67.70
12006;DHT22;6062;47.294;12.182;2022-10-15T15:23:47;14.10;68.00
12006;DHT22;6062;47.294;12.182;2022-10-15T15:26:13;14.00;67.90
12006;DHT22;6062;47.294;12.182;2022-10-15T15:28:39;14.00;68.00
12006;DHT22;6062;47.294;12.182;2022-10-15T15:31:06;14.00;68.30
12006;DHT22;6062;47.294;12.182;2022-10-15T15:33:37;13.90;68.60
12006;DHT22;6062;47.294;12.182;2022-10-15T15:36:14;13.90;68.40
12006;DHT22;6062;47.294;12.182;2022-10-15T15:38:41;13.90;68.40
12006;DHT22;6062;47.294;12.182;2022-10-15T15:43:40;14.00;68.50
12006;DHT22;6062;47.294;12.182;2022-10-15T15:46:06;14.00;68.30
12006;DHT22;6062;47.294;12.182;2022-10-15T15:48:33;13.90;68.40
12006;DHT22;6062;47.294;12.182;2022-10-15T15:51:24;13.90;68.20
12006;DHT22;6062;47.294;12.182;2022-10-15T15:53:52;13.90;68.10
12006;DHT22;6062;47.294;12.182;2022-10-15T15:56:19;13.80;68.10
12006;DHT22;6062;47.294;12.182;2022-10-15T15:58:45;13.60;68.40
12006;DHT22;6062;47.294;12.182;2022-10-15T16:01:10;13.50;68.70
12006;DHT22;6062;47.294;12.182;2022-10-15T16:03:36;13.50;69.20
12006;DHT22;6062;47.294;12.182;2022-10-15T16:06:04;13.40;69.50
12006;DHT22;6062;47.294;12.182;2022-10-15T16:08:31;13.30;69.80
12006;DHT22;6062;47.294;12.182;2022-10-15T16:11:01;13.30;70.00
12006;DHT22;6062;47.294;12.182;2022-10-15T16:13:28;13.30;70.40
12006;DHT22;6062;47.294;12.182;2022-10-15T16:15:54;13.20;70.30
12006;DHT22;6062;47.294;12.182;2022-10-15T16:18:19;13.20;70.30
12006;DHT22;6062;47.294;12.182;2022-10-15T16:20:45;13.20;70.40
12006;DHT22;6062;47.294;12.182;2022-10-15T16:23:11;13.20;70.40
12006;DHT22;6062;47.294;12.182;2022-10-15T16:25:37;13.20;70.30
12006;DHT22;6062;47.294;12.182;2022-10-15T16:28:03;13.20;70.20
12006;DHT22;6062;47.294;12.182;2022-10-15T16:30:29;13.20;70.00
12006;DHT22;6062;47.294;12.182;2022-10-15T16:32:54;13.20;69.90
12006;DHT22;6062;47.294;12.182;2022-10-15T16:35:20;13.20;69.80
12006;DHT22;6062;47.294;12.182;2022-10-15T16:37:46;13.20;70.00
12006;DHT22;6062;47.294;12.182;2022-10-15T16:40:12;13.20;70.20
12006;DHT22;6062;47.294;12.182;2022-10-15T16:42:39;13.20;70.30
12006;DHT22;6062;47.294;12.182;2022-10-15T16:45:05;13.20;70.10
12006;DHT22;6062;47.294;12.182;2022-10-15T16:47:31;13.10;70.10
12006;DHT22;6062;47.294;12.182;2022-10-15T16:49:56;13.10;70.20
12006;DHT22;6062;47.294;12.182;2022-10-15T16:52:22;13.00;70.40
12006;DHT22;6062;47.294;12.182;2022-10-15T16:54:48;13.00;70.60
12006;DHT22;6062;47.294;12.182;2022-10-15T16:57:13;12.90;70.60
12006;DHT22;6062;47.294;12.182;2022-10-15T16:59:39;12.90;70.80
12006;DHT22;6062;47.294;12.182;2022-10-15T17:02:05;12.90;71.00
12006;DHT22;6062;47.294;12.182;2022-10-15T17:04:30;12.90;71.00
12006;DHT22;6062;47.294;12.182;2022-10-15T17:06:56;12.90;71.00
12006;DHT22;6062;47.294;12.182;2022-10-15T17:09:22;12.80;70.90
12006;DHT22;6062;47.294;12.182;2022-10-15T17:11:48;12.80;70.80
12006;DHT22;6062;47.294;12.182;2022-10-15T17:14:15;12.80;70.90
12006;DHT22;6062;47.294;12.182;2022-10-15T17:16:46;12.80;70.90
12006;DHT22;6062;47.294;12.182;2022-10-15T17:19:15;12.80;71.10
12006;DHT22;6062;47.294;12.182;2022-10-15T17:21:43;12.80;70.80
12006;DHT22;6062;47.294;12.182;2022-10-15T17:24:11;12.80;70.80
12006;DHT22;6062;47.294;12.182;2022-10-15T17:26:39;12.80;70.80
12006;DHT22;6062;47.294;12.182;2022-10-15T17:29:09;12.70;70.80
12006;DHT22;6062;47.294;12.182;2022-10-15T17:31:41;12.70;71.00
12006;DHT22;6062;47.294;12.182;2022-10-15T17:34:09;12.70;71.00
12006;DHT22;6062;47.294;12.182;2022-10-15T17:36:41;12.70;71.20
12006;DHT22;6062;47.294;12.182;2022-10-15T17:39:14;12.70;71.30
12006;DHT22;6062;47.294;12.182;2022-10-15T17:41:41;12.70;71.40
12006;DHT22;6062;47.294;12.182;2022-10-15T17:44:08;12.70;71.30
12006;DHT22;6062;47.294;12.182;2022-10-15T17:46:36;12.70;71.40
12006;DHT22;6062;47.294;12.182;2022-10-15T17:49:02;12.60;71.40
12006;DHT22;6062;47.294;12.182;2022-10-15T17:51:30;12.70;71.40
12006;DHT22;6062;47.294;12.182;2022-10-15T17:53:58;12.60;71.40
12006;DHT22;6062;47.294;12.182;2022-10-15T17:56:27;12.60;71.30
12006;DHT22;6062;47.294;12.182;2022-10-15T17:58:56;12.70;71.30
12006;DHT22;6062;47.294;12.182;2022-10-15T18:01:25;12.70;71.20
12006;DHT22;6062;47.294;12.182;2022-10-15T18:03:58;12.70;71.40